createdAt,value
2022-10-05T00:01:31.255Z,76.99
2022-10-05T00:04:18.973Z,76.90
2022-10-05T00:06:51.114Z,76.83
2022-10-05T00:09:20.833Z,77.00
2022-10-05T00:11:48.692Z,76.84
2022-10-05T00:14:29.303Z,76.96
2022-10-05T00:16:56.432Z,76.76
2022-10-05T00:19:32.249Z,76.78
2022-10-05T00:21:59.989Z,76.87
2022-10-05T00:24:26.312Z,76.77
2022-10-05T00:26:57.628Z,76.76
2022-10-05T00:29:24.592Z,76.91
2022-10-05T00:31:51.091Z,76.78
2022-10-05T00:34:17.955Z,76.69
2022-10-05T00:36:45.746Z,76.56
2022-10-05T00:39:12.656Z,76.66
2022-10-05T00:41:57.292Z,76.90
2022-10-05T00:44:26.678Z,76.77
2022-10-05T00:47:09.457Z,77.05
2022-10-05T00:49:58.736Z,77.21
2022-10-05T00:52:40.223Z,77.21
2022-10-05T00:55:33.826Z,77.04
2022-10-05T00:58:12.338Z,77.47
2022-10-05T01:01:11.192Z,77.55
2022-10-05T01:04:12.463Z,77.45
2022-10-05T01:06:47.871Z,77.60
2022-10-05T01:09:33.164Z,77.40
2022-10-05T01:12:35.457Z,77.46
2022-10-05T01:15:30.912Z,77.97
2022-10-05T01:18:00.983Z,78.13
2022-10-05T01:20:39.474Z,78.22
2022-10-05T01:23:17.833Z,78.28
2022-10-05T01:26:12.917Z,78.42
2022-10-05T01:29:06.212Z,78.40
2022-10-05T01:31:45.546Z,78.44
2022-10-05T01:34:30.135Z,78.35
2022-10-05T01:37:12.767Z,78.52
2022-10-05T01:40:18.877Z,78.43
2022-10-05T01:43:00.225Z,78.54
2022-10-05T01:45:34.148Z,78.92
2022-10-05T01:48:07.570Z,78.88
2022-10-05T01:50:52.672Z,78.86
2022-10-05T01:53:35.603Z,79.20
2022-10-05T01:56:23.862Z,79.20
2022-10-05T01:59:01.181Z,79.18
2022-10-05T02:01:38.423Z,79.32
2022-10-05T02:05:00.320Z,79.46
2022-10-05T02:07:34.117Z,79.74
2022-10-05T02:10:18.977Z,79.86
2022-10-05T02:12:48.884Z,80.08
2022-10-05T02:15:22.573Z,79.94
2022-10-05T02:17:52.693Z,80.16
2022-10-05T02:20:32.349Z,80.20
2022-10-05T02:23:05.943Z,80.26
2022-10-05T02:25:36.821Z,80.27
2022-10-05T02:28:20.298Z,80.64
2022-10-05T02:30:54.989Z,80.51
2022-10-05T02:33:28.614Z,80.51
2022-10-05T02:36:00.638Z,80.65
2022-10-05T02:38:59.261Z,80.74
2022-10-05T02:41:52.207Z,80.70
2022-10-05T02:44:33.546Z,81.01
2022-10-05T02:47:11.588Z,81.00
2022-10-05T02:50:05.848Z,81.05
2022-10-05T02:52:54.216Z,81.10
2022-10-05T02:55:50.847Z,81.04
2022-10-05T02:58:24.814Z,81.29
2022-10-05T03:01:00.522Z,81.46
2022-10-05T03:03:34.888Z,81.50
2022-10-05T03:06:05.604Z,81.19
2022-10-05T03:08:51.556Z,81.57
2022-10-05T03:11:42.648Z,81.34
2022-10-05T03:14:37.055Z,81.02
2022-10-05T03:17:20.811Z,81.31
2022-10-05T03:20:02.105Z,81.35
2022-10-05T03:22:49.586Z,81.16
2022-10-05T03:25:32.609Z,81.12
2022-10-05T03:28:12.186Z,81.08
2022-10-05T03:31:06.633Z,80.98
2022-10-05T03:33:42.833Z,80.70
2022-10-05T03:36:36.338Z,80.85
2022-10-05T03:39:05.882Z,80.55
2022-10-05T03:41:50.375Z,80.52
2022-10-05T03:44:49.256Z,80.38
2022-10-05T03:47:37.910Z,80.26
2022-10-05T03:50:30.011Z,79.87
2022-10-05T03:53:18.332Z,79.68
2022-10-05T03:55:54.207Z,79.44
2022-10-05T03:58:40.991Z,79.40
2022-10-05T04:01:17.087Z,79.28
2022-10-05T04:03:52.152Z,79.29
2022-10-05T04:06:25.460Z,78.92
2022-10-05T04:09:02.015Z,78.91
2022-10-05T04:11:47.035Z,78.71
2022-10-05T04:14:21.863Z,78.80
2022-10-05T04:16:54.789Z,78.57
2022-10-05T04:19:32.039Z,78.59
2022-10-05T04:22:24.956Z,78.63
2022-10-05T04:24:58.778Z,78.52
2022-10-05T04:27:32.250Z,78.30
2022-10-05T04:30:05.137Z,78.06
2022-10-05T04:32:37.524Z,78.00
2022-10-05T04:35:24.636Z,77.95
2022-10-05T04:37:53.883Z,77.94
2022-10-05T04:40:31.317Z,78.02
2022-10-05T04:43:15.919Z,78.07
2022-10-05T04:46:27.459Z,78.08
2022-10-05T04:49:10.292Z,77.86
2022-10-05T04:51:55.315Z,77.97
2022-10-05T04:54:42.200Z,77.76
2022-10-05T04:57:33.988Z,77.87
2022-10-05T05:00:18.178Z,77.67
2022-10-05T05:03:07.489Z,77.52
2022-10-05T05:05:58.620Z,77.25
2022-10-05T05:08:46.692Z,77.18
2022-10-05T05:11:41.568Z,76.99
2022-10-05T05:14:19.448Z,77.00
2022-10-05T05:16:54.807Z,76.75
2022-10-05T05:19:28.556Z,76.82
2022-10-05T05:22:16.029Z,76.70
2022-10-05T05:24:42.273Z,76.71
2022-10-05T05:27:46.069Z,76.66
2022-10-05T05:30:23.193Z,76.48
2022-10-05T05:33:08.493Z,76.45
2022-10-05T05:36:14.086Z,76.59
2022-10-05T05:39:08.241Z,76.76
2022-10-05T05:41:39.042Z,76.92
2022-10-05T05:44:21.541Z,77.27
2022-10-05T05:47:05.465Z,77.11
2022-10-05T05:49:44.306Z,77.20
2022-10-05T05:52:18.012Z,77.35
2022-10-05T05:55:02.432Z,77.64
2022-10-05T05:57:44.575Z,77.65
2022-10-05T06:00:14.290Z,77.66
2022-10-05T06:02:57.006Z,77.82
2022-10-05T06:05:48.168Z,78.01
2022-10-05T06:08:24.704Z,78.19
2022-10-05T06:11:16.580Z,78.29
2022-10-05T06:13:44.033Z,78.30
2022-10-05T06:16:36.898Z,78.19
2022-10-05T06:19:10.335Z,78.28
2022-10-05T06:21:46.871Z,78.23
2022-10-05T06:24:31.701Z,78.13
2022-10-05T06:27:13.368Z,78.28
2022-10-05T06:30:03.299Z,78.22
2022-10-05T06:32:50.735Z,78.21
2022-10-05T06:36:21.971Z,78.08
2022-10-05T06:38:50.925Z,78.32
2022-10-05T06:41:29.184Z,78.22
2022-10-05T06:44:04.115Z,78.40
2022-10-05T06:46:49.027Z,78.33
2022-10-05T06:49:18.896Z,78.28
2022-10-05T06:51:58.289Z,78.27
2022-10-05T06:54:46.410Z,78.45
2022-10-05T06:57:36.464Z,78.30
2022-10-05T07:00:02.758Z,78.35
2022-10-05T07:02:38.935Z,78.23
2022-10-05T07:05:20.287Z,78.02
2022-10-05T07:08:00.877Z,78.23
2022-10-05T07:10:50.282Z,78.09
2022-10-05T07:13:38.233Z,78.05
2022-10-05T07:16:26.421Z,78.00
2022-10-05T07:18:55.841Z,77.96
2022-10-05T07:21:45.880Z,77.95
2022-10-05T07:24:15.290Z,77.87
2022-10-05T07:26:46.789Z,77.98
2022-10-05T07:29:23.795Z,77.76
2022-10-05T07:32:07.297Z,78.02
2022-10-05T07:34:45.452Z,77.64
2022-10-05T07:37:47.436Z,77.81
2022-10-05T07:40:23.140Z,77.80
2022-10-05T07:43:03.788Z,77.69
2022-10-05T07:45:47.850Z,77.80
2022-10-05T07:48:21.102Z,77.71
2022-10-05T07:51:01.591Z,77.53
2022-10-05T07:53:48.035Z,77.64
2022-10-05T07:56:26.589Z,77.75
2022-10-05T07:59:02.894Z,77.58
2022-10-05T08:01:38.267Z,77.57
2022-10-05T08:04:19.994Z,77.38
2022-10-05T08:06:54.023Z,77.24
2022-10-05T08:09:57.779Z,77.37
2022-10-05T08:12:27.060Z,76.98
2022-10-05T08:14:58.840Z,77.08
2022-10-05T08:17:50.694Z,77.19
2022-10-05T08:20:29.597Z,77.33
2022-10-05T08:23:10.476Z,76.91
2022-10-05T08:25:45.588Z,77.04
2022-10-05T08:28:26.907Z,76.77
2022-10-05T08:31:16.671Z,76.62
2022-10-05T08:33:55.457Z,76.54
2022-10-05T08:36:43.862Z,76.63
2022-10-05T08:39:18.462Z,76.68
2022-10-05T08:42:00.009Z,76.27
2022-10-05T08:45:01.309Z,76.46
2022-10-05T08:48:05.700Z,75.96
2022-10-05T08:50:47.139Z,75.95
2022-10-05T08:53:22.471Z,75.91
2022-10-05T08:55:56.852Z,75.66
2022-10-05T08:58:42.928Z,75.50
2022-10-05T09:01:25.940Z,75.67
2022-10-05T09:04:18.140Z,75.16
2022-10-05T09:06:59.389Z,75.02
2022-10-05T09:09:40.649Z,75.15
2022-10-05T09:12:37.417Z,74.84
2022-10-05T09:15:31.219Z,74.65
2022-10-05T09:18:29.324Z,74.60
2022-10-05T09:21:44.754Z,74.38
2022-10-05T09:24:14.111Z,73.60
2022-10-05T09:26:40.356Z,73.59
2022-10-05T09:29:34.591Z,73.61
2022-10-05T09:32:18.834Z,72.81
2022-10-05T09:35:08.068Z,72.88
2022-10-05T09:38:10.087Z,72.33
2022-10-05T09:41:14.504Z,72.12
2022-10-05T09:43:59.020Z,71.89
2022-10-05T09:46:37.592Z,71.52
2022-10-05T09:49:28.528Z,71.81
2022-10-05T09:52:15.131Z,71.24
2022-10-05T09:55:08.145Z,71.30
2022-10-05T09:57:49.266Z,71.21
2022-10-05T10:00:37.668Z,71.00
2022-10-05T10:03:45.274Z,71.40
2022-10-05T10:06:26.554Z,70.94
2022-10-05T10:09:11.742Z,71.14
2022-10-05T10:12:08.368Z,70.87
2022-10-05T10:15:16.081Z,70.99
2022-10-05T10:18:08.754Z,70.85
2022-10-05T10:20:55.981Z,70.50
2022-10-05T10:24:00.259Z,71.27
2022-10-05T10:26:48.512Z,71.65
2022-10-05T10:29:33.544Z,71.53
2022-10-05T10:32:19.465Z,71.51
2022-10-05T10:35:04.487Z,71.04
2022-10-05T10:37:39.476Z,71.26
2022-10-05T10:40:28.738Z,71.57
2022-10-05T10:43:21.901Z,71.20
2022-10-05T10:46:12.711Z,71.09
2022-10-05T10:48:52.753Z,71.44
2022-10-05T10:51:28.188Z,71.04
2022-10-05T10:54:36.045Z,71.29
2022-10-05T10:57:16.737Z,71.25
2022-10-05T11:00:08.131Z,71.53
2022-10-05T11:03:08.427Z,71.34
2022-10-05T11:05:48.781Z,71.42
2022-10-05T11:08:54.462Z,71.36
2022-10-05T11:11:53.221Z,71.51
2022-10-05T11:14:42.819Z,71.40
2022-10-05T11:17:38.279Z,71.58
2022-10-05T11:20:25.267Z,71.85
2022-10-05T11:23:07.645Z,71.23
2022-10-05T11:25:48.885Z,71.80
2022-10-05T11:28:43.026Z,71.36
2022-10-05T11:31:53.352Z,70.70
2022-10-05T11:34:38.561Z,71.15
2022-10-05T11:37:32.316Z,70.67
2022-10-05T11:40:20.849Z,71.27
2022-10-05T11:43:08.423Z,70.69
2022-10-05T11:46:00.576Z,70.52
2022-10-05T11:48:38.909Z,71.11
2022-10-05T11:51:34.133Z,70.77
2022-10-05T11:54:09.239Z,70.77
2022-10-05T11:56:38.044Z,70.51
2022-10-05T11:59:34.464Z,70.17
2022-10-05T12:02:21.212Z,70.05
2022-10-05T12:05:06.403Z,69.61
2022-10-05T12:07:42.937Z,69.37
2022-10-05T12:10:16.801Z,69.13
2022-10-05T12:13:19.285Z,69.09
2022-10-05T12:16:08.177Z,68.07
2022-10-05T12:18:39.080Z,68.81
2022-10-05T12:21:15.200Z,68.21
2022-10-05T12:23:54.726Z,67.74
2022-10-05T12:26:39.643Z,67.33
2022-10-05T12:29:06.726Z,67.35
2022-10-05T12:31:48.170Z,67.08
2022-10-05T12:34:29.763Z,66.96
2022-10-05T12:37:43.240Z,66.32
2022-10-05T12:40:21.780Z,66.56
2022-10-05T12:43:08.741Z,66.28
2022-10-05T12:46:06.359Z,66.59
2022-10-05T12:48:42.120Z,66.55
2022-10-05T12:51:44.761Z,65.97
2022-10-05T12:54:22.222Z,65.90
2022-10-05T12:56:58.028Z,65.64
2022-10-05T12:59:46.744Z,65.42
2022-10-05T13:02:30.439Z,66.41
2022-10-05T13:05:27.126Z,65.76
2022-10-05T13:08:17.902Z,65.94
2022-10-05T13:11:02.102Z,66.18
2022-10-05T13:13:42.796Z,66.39
2022-10-05T13:16:27.295Z,66.52
2022-10-05T13:19:15.918Z,66.34
2022-10-05T13:22:16.647Z,66.94
2022-10-05T13:25:23.195Z,67.61
2022-10-05T13:28:16.539Z,67.17
2022-10-05T13:30:53.950Z,67.45
2022-10-05T13:33:30.579Z,67.70
2022-10-05T13:36:21.251Z,67.74
2022-10-05T13:38:59.551Z,67.37
2022-10-05T13:41:50.068Z,67.61
2022-10-05T13:44:30.620Z,67.72
2022-10-05T13:47:16.787Z,67.27
2022-10-05T13:49:57.825Z,67.19
2022-10-05T13:52:37.596Z,66.99
2022-10-05T13:55:18.068Z,66.36
2022-10-05T13:57:53.276Z,65.15
2022-10-05T14:00:27.112Z,65.68
2022-10-05T14:02:56.835Z,65.21
2022-10-05T14:05:26.909Z,64.86
2022-10-05T14:08:02.073Z,65.06
2022-10-05T14:10:43.282Z,63.98
2022-10-05T14:13:46.575Z,63.12
2022-10-05T14:16:12.999Z,63.98
2022-10-05T14:18:52.729Z,63.03
2022-10-05T14:21:25.069Z,62.33
2022-10-05T14:23:52.214Z,61.64
2022-10-05T14:26:31.618Z,61.75
2022-10-05T14:29:02.176Z,61.68
2022-10-05T14:31:31.742Z,61.10
2022-10-05T14:34:29.302Z,61.82
2022-10-05T14:37:01.719Z,62.17
2022-10-05T14:39:33.314Z,62.46
2022-10-05T14:42:13.629Z,62.27
2022-10-05T14:44:40.156Z,62.91
2022-10-05T14:47:20.344Z,62.68
2022-10-05T14:50:10.530Z,63.04
2022-10-05T14:52:38.873Z,62.29
2022-10-05T14:55:30.101Z,63.06
2022-10-05T14:58:12.286Z,63.05
2022-10-05T15:00:56.738Z,63.27
2022-10-05T15:03:41.005Z,63.46
2022-10-05T15:06:18.078Z,62.87
2022-10-05T15:08:56.728Z,62.87
2022-10-05T15:11:37.217Z,62.91
2022-10-05T15:14:11.856Z,62.44
2022-10-05T15:16:40.387Z,62.79
2022-10-05T15:19:17.864Z,63.05
2022-10-05T15:22:09.344Z,63.41
2022-10-05T15:25:08.701Z,63.42
2022-10-05T15:28:00.098Z,63.69
2022-10-05T15:30:26.444Z,64.22
2022-10-05T15:33:11.113Z,64.55
2022-10-05T15:36:06.266Z,63.88
2022-10-05T15:38:49.534Z,64.46
2022-10-05T15:41:27.792Z,64.65
2022-10-05T15:44:25.945Z,64.77
2022-10-05T15:47:35.324Z,65.46
2022-10-05T15:50:29.585Z,65.48
2022-10-05T15:52:59.359Z,65.77
2022-10-05T15:55:35.194Z,65.76
2022-10-05T15:58:08.320Z,65.71
2022-10-05T16:00:42.717Z,65.85
2022-10-05T16:03:25.564Z,66.09
2022-10-05T16:06:20.504Z,66.31
2022-10-05T16:09:16.691Z,66.10
2022-10-05T16:11:56.369Z,65.54
2022-10-05T16:14:55.705Z,65.54
2022-10-05T16:17:49.000Z,65.77
2022-10-05T16:20:35.592Z,65.48
2022-10-05T16:23:22.919Z,65.73
2022-10-05T16:25:58.727Z,65.51
2022-10-05T16:28:39.363Z,65.37
2022-10-05T16:31:08.328Z,65.34
2022-10-05T16:33:54.309Z,65.69
2022-10-05T16:36:36.243Z,66.03
2022-10-05T16:39:29.135Z,65.79
2022-10-05T16:42:06.402Z,66.04
2022-10-05T16:44:49.514Z,66.17
2022-10-05T16:47:40.381Z,66.16
2022-10-05T16:50:42.947Z,66.76
2022-10-05T16:53:38.525Z,66.91
2022-10-05T16:56:11.392Z,67.33
2022-10-05T16:58:58.669Z,67.47
2022-10-05T17:01:47.041Z,67.61
2022-10-05T17:04:40.206Z,67.92
2022-10-05T17:07:32.744Z,68.10
2022-10-05T17:10:28.587Z,68.27
2022-10-05T17:13:16.186Z,68.17
2022-10-05T17:16:00.691Z,68.23
2022-10-05T17:18:51.600Z,68.58
2022-10-05T17:21:22.911Z,68.70
2022-10-05T17:24:15.485Z,68.74
2022-10-05T17:27:03.527Z,68.95
2022-10-05T17:29:47.549Z,69.19
2022-10-05T17:32:16.929Z,69.03
2022-10-05T17:35:01.736Z,69.32
2022-10-05T17:37:27.974Z,69.44
2022-10-05T17:39:56.076Z,69.45
2022-10-05T17:42:31.177Z,69.35
2022-10-05T17:45:20.561Z,69.77
2022-10-05T17:48:09.016Z,69.99
2022-10-05T17:51:00.093Z,70.08
2022-10-05T17:54:03.219Z,70.20
2022-10-05T17:56:58.611Z,70.30
2022-10-05T17:59:37.304Z,70.25
2022-10-05T18:02:36.638Z,70.67
2022-10-05T18:05:04.024Z,70.57
2022-10-05T18:07:31.602Z,70.41
2022-10-05T18:10:11.520Z,70.59
2022-10-05T18:12:40.814Z,70.48
2022-10-05T18:15:07.055Z,70.67
2022-10-05T18:17:39.906Z,70.66
2022-10-05T18:20:13.748Z,70.64
2022-10-05T18:22:40.677Z,70.63
2022-10-05T18:25:22.794Z,70.79
2022-10-05T18:28:13.919Z,71.05
2022-10-05T18:30:55.173Z,71.04
2022-10-05T18:33:55.670Z,71.16
2022-10-05T18:36:48.407Z,71.18
2022-10-05T18:39:51.436Z,71.24
2022-10-05T18:42:32.836Z,71.12
2022-10-05T18:45:17.874Z,71.32
2022-10-05T18:47:47.047Z,71.39
2022-10-05T18:50:38.335Z,71.60
2022-10-05T18:53:14.848Z,71.69
2022-10-05T18:55:47.685Z,71.81
2022-10-05T18:58:20.392Z,71.88
2022-10-05T19:01:05.246Z,71.97
2022-10-05T19:03:51.284Z,72.08
2022-10-05T19:06:36.165Z,72.17
2022-10-05T19:09:08.260Z,72.19
2022-10-05T19:11:38.512Z,72.07
2022-10-05T19:14:20.129Z,72.40
2022-10-05T19:17:04.146Z,72.54
2022-10-05T19:19:36.815Z,72.61
2022-10-05T19:22:34.486Z,73.04
2022-10-05T19:25:09.891Z,73.37
2022-10-05T19:27:55.336Z,73.54
2022-10-05T19:30:25.138Z,73.46
2022-10-05T19:33:26.054Z,73.75
2022-10-05T19:36:17.204Z,74.04
2022-10-05T19:38:55.827Z,74.01
2022-10-05T19:41:36.074Z,74.17
2022-10-05T19:44:11.286Z,74.79
2022-10-05T19:47:01.331Z,77.11
2022-10-05T19:49:42.884Z,80.31
2022-10-05T19:52:13.730Z,81.99
2022-10-05T19:54:42.323Z,82.46
2022-10-05T19:57:18.912Z,83.61
2022-10-05T19:59:47.647Z,84.49
2022-10-05T20:02:17.318Z,84.66
2022-10-05T20:04:47.382Z,85.24
2022-10-05T20:07:16.932Z,85.69
2022-10-05T20:09:50.713Z,86.46
2022-10-05T20:12:17.148Z,86.57
2022-10-05T20:15:02.065Z,86.77
2022-10-05T20:17:47.967Z,87.04
2022-10-05T20:20:44.557Z,87.59
2022-10-05T20:23:21.046Z,87.77
2022-10-05T20:26:07.343Z,88.01
2022-10-05T20:28:33.750Z,88.07
2022-10-05T20:31:00.149Z,88.60
2022-10-05T20:33:27.560Z,88.87
2022-10-05T20:35:54.433Z,88.98
2022-10-05T20:38:21.066Z,89.19
2022-10-05T20:40:47.402Z,89.60
2022-10-05T20:43:14.425Z,89.70
2022-10-05T20:45:43.729Z,89.97
2022-10-05T20:48:11.118Z,89.97
2022-10-05T20:50:37.812Z,90.16
2022-10-05T20:53:09.646Z,90.14
2022-10-05T20:55:37.984Z,90.35
2022-10-05T20:58:04.284Z,90.39
2022-10-05T21:00:50.603Z,90.52
2022-10-05T21:03:19.184Z,90.53
2022-10-05T21:05:46.693Z,90.53
2022-10-05T21:08:13.028Z,90.73
2022-10-05T21:10:39.999Z,90.75
2022-10-05T21:13:06.322Z,90.78
2022-10-05T21:15:32.627Z,90.44
2022-10-05T21:17:59.242Z,90.06
2022-10-05T21:20:25.965Z,89.45
2022-10-05T21:22:52.269Z,89.52
2022-10-05T21:25:18.566Z,89.68
2022-10-05T21:27:46.249Z,89.59
2022-10-05T21:30:12.791Z,89.55
2022-10-05T21:32:43.977Z,89.70
2022-10-05T21:35:10.852Z,89.96
2022-10-05T21:37:37.252Z,89.95
2022-10-05T21:40:03.927Z,90.06
2022-10-05T21:42:30.295Z,90.06
2022-10-05T21:44:56.583Z,90.02
2022-10-05T21:47:22.947Z,90.28
2022-10-05T21:49:49.307Z,90.00
2022-10-05T21:52:15.616Z,89.82
2022-10-05T21:54:41.937Z,89.73
2022-10-05T21:57:11.462Z,89.84
2022-10-05T21:59:37.860Z,89.94
2022-10-05T22:02:04.309Z,90.00
2022-10-05T22:04:30.655Z,90.12
2022-10-05T22:06:57.005Z,90.16
2022-10-05T22:09:23.367Z,90.36
2022-10-05T22:11:49.685Z,90.58
2022-10-05T22:14:16.180Z,90.51
2022-10-05T22:16:43.960Z,90.57
2022-10-05T22:19:18.455Z,90.75
2022-10-05T22:21:44.894Z,90.87
2022-10-05T22:24:14.089Z,90.53
2022-10-05T22:26:43.655Z,90.54
2022-10-05T22:29:10.075Z,90.45
2022-10-05T22:31:36.906Z,90.71
2022-10-05T22:34:03.292Z,90.96
2022-10-05T22:36:29.623Z,91.09
2022-10-05T22:38:56.036Z,91.04
2022-10-05T22:41:22.422Z,90.92
2022-10-05T22:43:50.138Z,91.18
2022-10-05T22:46:16.943Z,90.98
2022-10-05T22:48:43.555Z,91.18
2022-10-05T22:51:10.195Z,91.06
2022-10-05T22:53:36.545Z,91.11
2022-10-05T22:56:13.916Z,91.33
2022-10-05T22:58:41.690Z,91.41
2022-10-05T23:01:11.629Z,91.46
2022-10-05T23:03:38.901Z,91.32
2022-10-05T23:06:08.972Z,91.46
2022-10-05T23:08:37.288Z,91.39
2022-10-05T23:11:04.213Z,91.46
2022-10-05T23:13:30.924Z,91.54
2022-10-05T23:15:57.617Z,91.27
2022-10-05T23:18:24.106Z,91.23
2022-10-05T23:20:57.130Z,91.21
2022-10-05T23:23:23.543Z,91.29
2022-10-05T23:25:50.059Z,91.14
2022-10-05T23:28:16.408Z,91.31
2022-10-05T23:30:42.875Z,91.62
2022-10-05T23:33:09.247Z,91.32
2022-10-05T23:35:35.584Z,91.32
2022-10-05T23:38:01.884Z,91.10
2022-10-05T23:40:28.216Z,90.91
2022-10-05T23:42:54.521Z,90.61
2022-10-05T23:45:20.822Z,90.30
2022-10-05T23:47:47.144Z,89.96
2022-10-05T23:50:13.442Z,90.18
2022-10-05T23:52:39.876Z,90.04
2022-10-05T23:55:06.925Z,90.64
2022-10-05T23:57:33.335Z,90.24
